Terminal Aerodrome Forecast
Issued by NWS Jackson, MS

Home | Current Version | Previous Version | Text Only | Print | Product List | Glossary On
Versions: 1 2 3 4 5 6 7 8 9 10 11 12 13 14 15 16
000
FTUS44 KJAN 020558
TAFJAN
TAF
KJAN 020558Z 0206/0306 15007KT P6SM FEW050
     FM021000 19007KT 5SM BR BKN018
     FM021500 21005KT P6SM -SHRA VCTS SCT025 OVC050CB
     FM021800 28010KT 4SM -SHRA VCTS OVC025CB
     FM022300 35010KT P6SM -RA OVC035=

USA.gov is the U.S. government's official web portal to all federal, state and local government web resources and services.